sensor_id;sensor_type;location;lat;lon;timestamp;pressure;altitude;pressure_sealevel;temperature;humidity
34081;BME280;20358;50.272;19.026;2023-05-11T00:02:53;98374.63;;;9.43;43.31
34081;BME280;20358;50.272;19.026;2023-05-11T00:06:00;98386.22;;;9.41;43.08
34081;BME280;20358;50.272;19.026;2023-05-11T00:09:06;98380.41;;;9.36;43.17
34081;BME280;20358;50.272;19.026;2023-05-11T00:12:13;98379.91;;;9.31;43.83
34081;BME280;20358;50.272;19.026;2023-05-11T00:15:19;98374.84;;;9.28;44.02
34081;BME280;20358;50.272;19.026;2023-05-11T00:18:28;98373.38;;;9.24;43.30
34081;BME280;20358;50.272;19.026;2023-05-11T00:21:34;98375.38;;;9.20;44.62
34081;BME280;20358;50.272;19.026;2023-05-11T00:24:40;98384.13;;;9.20;44.23
34081;BME280;20358;50.272;19.026;2023-05-11T00:27:46;98380.75;;;9.18;44.17
34081;BME280;20358;50.272;19.026;2023-05-11T00:30:55;98370.91;;;9.08;44.31
34081;BME280;20358;50.272;19.026;2023-05-11T00:34:04;98376.91;;;9.10;44.87
34081;BME280;20358;50.272;19.026;2023-05-11T00:37:10;98379.88;;;9.05;44.96
34081;BME280;20358;50.272;19.026;2023-05-11T00:40:16;98374.03;;;9.00;44.08
34081;BME280;20358;50.272;19.026;2023-05-11T00:43:22;98366.44;;;8.96;44.37
34081;BME280;20358;50.272;19.026;2023-05-11T00:46:28;98372.03;;;8.91;44.29
34081;BME280;20358;50.272;19.026;2023-05-11T00:49:38;98375.72;;;8.89;44.82
34081;BME280;20358;50.272;19.026;2023-05-11T00:52:44;98369.94;;;8.84;45.20
34081;BME280;20358;50.272;19.026;2023-05-11T00:55:50;98376.25;;;8.81;44.58
34081;BME280;20358;50.272;19.026;2023-05-11T00:58:56;98386.03;;;8.79;45.28
34081;BME280;20358;50.272;19.026;2023-05-11T01:02:04;98386.97;;;8.78;45.94
34081;BME280;20358;50.272;19.026;2023-05-11T01:05:13;98381.91;;;8.75;46.10
34081;BME280;20358;50.272;19.026;2023-05-11T01:08:24;98381.06;;;8.75;45.77
34081;BME280;20358;50.272;19.026;2023-05-11T01:11:45;98371.69;;;8.71;45.52
34081;BME280;20358;50.272;19.026;2023-05-11T01:15:03;98379.91;;;8.66;45.13
34081;BME280;20358;50.272;19.026;2023-05-11T01:18:19;98369.66;;;8.61;46.25
34081;BME280;20358;50.272;19.026;2023-05-11T01:21:38;98375.97;;;8.59;45.43
34081;BME280;20358;50.272;19.026;2023-05-11T01:25:04;98376.06;;;8.57;45.37
34081;BME280;20358;50.272;19.026;2023-05-11T01:28:29;98376.19;;;8.56;45.89
34081;BME280;20358;50.272;19.026;2023-05-11T01:31:58;98381.66;;;8.53;46.50
34081;BME280;20358;50.272;19.026;2023-05-11T01:35:17;98378.28;;;8.51;46.13
34081;BME280;20358;50.272;19.026;2023-05-11T01:38:31;98381.13;;;8.48;46.28
34081;BME280;20358;50.272;19.026;2023-05-11T01:41:45;98382.91;;;8.47;45.92
34081;BME280;20358;50.272;19.026;2023-05-11T01:44:59;98383.19;;;8.43;46.25
34081;BME280;20358;50.272;19.026;2023-05-11T01:48:15;98379.06;;;8.39;45.98
34081;BME280;20358;50.272;19.026;2023-05-11T01:51:28;98374.22;;;8.33;46.73
34081;BME280;20358;50.272;19.026;2023-05-11T01:54:41;98376.38;;;8.26;46.39
34081;BME280;20358;50.272;19.026;2023-05-11T01:57:52;98373.09;;;8.23;47.25
34081;BME280;20358;50.272;19.026;2023-05-11T02:01:01;98375.19;;;8.18;47.37
34081;BME280;20358;50.272;19.026;2023-05-11T02:04:12;98379.81;;;8.14;47.63
34081;BME280;20358;50.272;19.026;2023-05-11T02:07:23;98373.47;;;8.04;47.58
34081;BME280;20358;50.272;19.026;2023-05-11T02:10:33;98388.41;;;8.04;47.24
34081;BME280;20358;50.272;19.026;2023-05-11T02:13:44;98389.47;;;7.99;47.43
34081;BME280;20358;50.272;19.026;2023-05-11T02:16:53;98397.59;;;7.96;48.11
34081;BME280;20358;50.272;19.026;2023-05-11T02:20:06;98394.19;;;7.94;47.36
34081;BME280;20358;50.272;19.026;2023-05-11T02:23:16;98380.69;;;7.86;48.08
34081;BME280;20358;50.272;19.026;2023-05-11T02:26:26;98377.50;;;7.81;47.73
34081;BME280;20358;50.272;19.026;2023-05-11T02:29:32;98385.94;;;7.86;47.46
34081;BME280;20358;50.272;19.026;2023-05-11T02:32:46;98398.34;;;7.84;47.72
34081;BME280;20358;50.272;19.026;2023-05-11T02:35:58;98388.00;;;7.81;47.94
34081;BME280;20358;50.272;19.026;2023-05-11T02:39:12;98379.88;;;7.72;47.73
34081;BME280;20358;50.272;19.026;2023-05-11T02:42:26;98379.75;;;7.73;47.72
34081;BME280;20358;50.272;19.026;2023-05-11T02:45:36;98388.78;;;7.69;47.96
34081;BME280;20358;50.272;19.026;2023-05-11T02:48:51;98387.09;;;7.68;48.71
34081;BME280;20358;50.272;19.026;2023-05-11T02:52:08;98382.88;;;7.66;48.18
34081;BME280;20358;50.272;19.026;2023-05-11T02:55:21;98388.34;;;7.63;48.89
34081;BME280;20358;50.272;19.026;2023-05-11T02:58:29;98384.13;;;7.60;48.18
34081;BME280;20358;50.272;19.026;2023-05-11T03:01:48;98391.16;;;7.60;48.83
34081;BME280;20358;50.272;19.026;2023-05-11T03:04:55;98387.69;;;7.59;49.30
34081;BME280;20358;50.272;19.026;2023-05-11T03:08:06;98384.31;;;7.57;49.39
34081;BME280;20358;50.272;19.026;2023-05-11T03:11:14;98387.84;;;7.56;48.69
34081;BME280;20358;50.272;19.026;2023-05-11T03:14:23;98388.03;;;7.53;49.69
34081;BME280;20358;50.272;19.026;2023-05-11T03:17:34;98388.03;;;7.53;49.11
34081;BME280;20358;50.272;19.026;2023-05-11T03:20:44;98388.78;;;7.55;49.23
34081;BME280;20358;50.272;19.026;2023-05-11T03:23:56;98372.28;;;7.53;49.94
34081;BME280;20358;50.272;19.026;2023-05-11T03:27:07;98389.16;;;7.63;49.63
34081;BME280;20358;50.272;19.026;2023-05-11T03:30:19;98376.03;;;7.63;49.54
34081;BME280;20358;50.272;19.026;2023-05-11T03:33:29;98388.22;;;7.78;49.15
34081;BME280;20358;50.272;19.026;2023-05-11T03:36:41;98389.91;;;7.79;49.64
34081;BME280;20358;50.272;19.026;2023-05-11T03:39:57;98392.91;;;7.87;49.27
34081;BME280;20358;50.272;19.026;2023-05-11T03:43:17;98394.19;;;7.94;50.00
34081;BME280;20358;50.272;19.026;2023-05-11T03:46:26;98399.06;;;8.00;49.74
34081;BME280;20358;50.272;19.026;2023-05-11T03:49:37;98393.16;;;8.11;49.47
34081;BME280;20358;50.272;19.026;2023-05-11T03:52:44;98389.13;;;8.20;48.61
34081;BME280;20358;50.272;19.026;2023-05-11T03:55:53;98386.59;;;8.31;49.52
34081;BME280;20358;50.272;19.026;2023-05-11T03:58:59;98386.97;;;8.39;49.21
34081;BME280;20358;50.272;19.026;2023-05-11T04:02:06;98385.59;;;8.46;48.60
34081;BME280;20358;50.272;19.026;2023-05-11T04:05:12;98393.66;;;8.57;48.16
34081;BME280;20358;50.272;19.026;2023-05-11T04:08:21;98388.66;;;8.67;48.37
34081;BME280;20358;50.272;19.026;2023-05-11T04:11:30;98399.50;;;8.75;48.28
34081;BME280;20358;50.272;19.026;2023-05-11T04:14:40;98390.13;;;8.83;48.29
34081;BME280;20358;50.272;19.026;2023-05-11T04:17:45;98395.22;;;8.86;47.29
34081;BME280;20358;50.272;19.026;2023-05-11T04:20:52;98401.31;;;8.87;46.90
34081;BME280;20358;50.272;19.026;2023-05-11T04:23:58;98395.22;;;8.86;46.74
34081;BME280;20358;50.272;19.026;2023-05-11T04:27:07;98403.84;;;8.88;47.28
34081;BME280;20358;50.272;19.026;2023-05-11T04:30:13;98406.69;;;8.85;46.74
34081;BME280;20358;50.272;19.026;2023-05-11T04:33:20;98405.94;;;8.83;46.46
34081;BME280;20358;50.272;19.026;2023-05-11T04:36:27;98400.69;;;8.83;46.82
34081;BME280;20358;50.272;19.026;2023-05-11T04:39:35;98403.63;;;8.79;46.69
34081;BME280;20358;50.272;19.026;2023-05-11T04:42:43;98408.16;;;8.77;47.63
34081;BME280;20358;50.272;19.026;2023-05-11T04:45:52;98404.66;;;8.76;47.63
34081;BME280;20358;50.272;19.026;2023-05-11T04:49:01;98407.19;;;8.78;46.94
34081;BME280;20358;50.272;19.026;2023-05-11T04:52:08;98400.69;;;8.83;47.25
34081;BME280;20358;50.272;19.026;2023-05-11T04:55:16;98403.53;;;8.93;47.71
34081;BME280;20358;50.272;19.026;2023-05-11T04:58:26;98402.72;;;9.05;47.54
34081;BME280;20358;50.272;19.026;2023-05-11T05:01:32;98396.75;;;9.15;47.11
34081;BME280;20358;50.272;19.026;2023-05-11T05:04:38;98409.00;;;9.42;47.04
34081;BME280;20358;50.272;19.026;2023-05-11T05:07:44;98410.38;;;9.60;45.32
34081;BME280;20358;50.272;19.026;2023-05-11T05:10:51;98406.44;;;9.78;45.21
34081;BME280;20358;50.272;19.026;2023-05-11T05:14:02;98406.81;;;9.97;45.24
34081;BME280;20358;50.272;19.026;2023-05-11T05:17:08;98410.75;;;10.15;44.71
34081;BME280;20358;50.272;19.026;2023-05-11T05:20:15;98407.03;;;10.30;44.94
34081;BME280;20358;50.272;19.026;2023-05-11T05:23:22;98416.53;;;10.46;44.25
34081;BME280;20358;50.272;19.026;2023-05-11T05:26:27;98409.03;;;10.63;44.19
34081;BME280;20358;50.272;19.026;2023-05-11T05:29:38;98225.63;;;9.74;44.15
34081;BME280;20358;50.272;19.026;2023-05-11T05:32:44;98405.22;;;11.02;43.83
34081;BME280;20358;50.272;19.026;2023-05-11T05:35:50;98404.78;;;11.19;43.64
34081;BME280;20358;50.272;19.026;2023-05-11T05:38:56;98416.34;;;11.29;42.60
34081;BME280;20358;50.272;19.026;2023-05-11T05:42:03;98407.03;;;11.36;42.64
34081;BME280;20358;50.272;19.026;2023-05-11T05:45:12;98398.34;;;11.34;42.47
34081;BME280;20358;50.272;19.026;2023-05-11T05:48:19;98411.22;;;11.50;42.86
34081;BME280;20358;50.272;19.026;2023-05-11T05:51:25;98414.47;;;11.53;42.15
34081;BME280;20358;50.272;19.026;2023-05-11T05:54:32;98409.06;;;11.55;42.63
34081;BME280;20358;50.272;19.026;2023-05-11T05:57:38;98408.72;;;11.59;42.44
34081;BME280;20358;50.272;19.026;2023-05-11T06:00:48;98408.47;;;11.62;41.99
34081;BME280;20358;50.272;19.026;2023-05-11T06:03:54;98424.94;;;11.66;42.45
34081;BME280;20358;50.272;19.026;2023-05-11T06:07:01;98411.59;;;11.67;42.22
34081;BME280;20358;50.272;19.026;2023-05-11T06:10:08;98415.69;;;11.72;41.98
34081;BME280;20358;50.272;19.026;2023-05-11T06:13:15;98423.41;;;11.75;41.78
34081;BME280;20358;50.272;19.026;2023-05-11T06:16:24;98422.19;;;11.79;42.49
34081;BME280;20358;50.272;19.026;2023-05-11T06:19:34;98423.63;;;11.83;42.31
34081;BME280;20358;50.272;19.026;2023-05-11T06:22:40;98421.72;;;11.85;42.04
34081;BME280;20358;50.272;19.026;2023-05-11T06:25:48;98287.50;;;11.09;42.30
34081;BME280;20358;50.272;19.026;2023-05-11T06:28:55;98426.16;;;11.95;42.54
34081;BME280;20358;50.272;19.026;2023-05-11T06:32:05;98432.63;;;12.02;42.57
34081;BME280;20358;50.272;19.026;2023-05-11T06:35:12;98427.09;;;12.05;42.64
34081;BME280;20358;50.272;19.026;2023-05-11T06:38:20;98431.09;;;12.11;42.52
34081;BME280;20358;50.272;19.026;2023-05-11T06:41:26;98422.31;;;12.21;42.47
34081;BME280;20358;50.272;19.026;2023-05-11T06:44:33;98436.34;;;12.33;42.44
34081;BME280;20358;50.272;19.026;2023-05-11T06:47:44;98424.53;;;12.48;42.10
34081;BME280;20358;50.272;19.026;2023-05-11T06:50:51;98421.16;;;12.57;41.68
34081;BME280;20358;50.272;19.026;2023-05-11T06:53:56;98417.72;;;12.66;42.22
34081;BME280;20358;50.272;19.026;2023-05-11T06:57:05;98421.06;;;12.79;41.85
34081;BME280;20358;50.272;19.026;2023-05-11T07:00:13;98422.94;;;12.88;41.40
34081;BME280;20358;50.272;19.026;2023-05-11T07:03:24;98416.38;;;13.04;41.66
34081;BME280;20358;50.272;19.026;2023-05-11T07:06:30;98415.38;;;13.16;40.90
34081;BME280;20358;50.272;19.026;2023-05-11T07:09:37;98415.19;;;13.28;40.43
34081;BME280;20358;50.272;19.026;2023-05-11T07:12:44;98417.19;;;13.36;40.74
34081;BME280;20358;50.272;19.026;2023-05-11T07:15:51;98412.53;;;13.49;40.71
34081;BME280;20358;50.272;19.026;2023-05-11T07:19:01;98410.03;;;13.57;40.75
34081;BME280;20358;50.272;19.026;2023-05-11T07:22:08;98405.34;;;13.70;40.64
34081;BME280;20358;50.272;19.026;2023-05-11T07:25:16;98407.66;;;13.84;40.32
34081;BME280;20358;50.272;19.026;2023-05-11T07:28:22;98407.16;;;13.90;39.13
34081;BME280;20358;50.272;19.026;2023-05-11T07:31:28;98413.09;;;14.03;39.38
34081;BME280;20358;50.272;19.026;2023-05-11T07:34:38;98412.28;;;14.12;39.76
34081;BME280;20358;50.272;19.026;2023-05-11T07:37:44;98423.75;;;14.23;39.63
34081;BME280;20358;50.272;19.026;2023-05-11T07:40:51;98414.84;;;14.33;39.48
34081;BME280;20358;50.272;19.026;2023-05-11T07:43:58;98412.91;;;14.45;38.83
34081;BME280;20358;50.272;19.026;2023-05-11T07:47:06;98402.72;;;14.50;38.83
34081;BME280;20358;50.272;19.026;2023-05-11T07:50:14;98408.19;;;14.58;39.38
34081;BME280;20358;50.272;19.026;2023-05-11T07:53:21;98409.31;;;14.65;38.88
34081;BME280;20358;50.272;19.026;2023-05-11T07:56:27;98402.72;;;14.69;38.39
34081;BME280;20358;50.272;19.026;2023-05-11T07:59:33;98403.44;;;14.71;38.38
34081;BME280;20358;50.272;19.026;2023-05-11T08:02:39;98398.38;;;14.58;38.33
34081;BME280;20358;50.272;19.026;2023-05-11T08:05:51;98396.72;;;14.57;38.71
34081;BME280;20358;50.272;19.026;2023-05-11T08:08:56;98397.81;;;14.55;38.56
34081;BME280;20358;50.272;19.026;2023-05-11T08:12:03;98396.72;;;14.67;37.98
34081;BME280;20358;50.272;19.026;2023-05-11T08:15:09;98388.03;;;14.65;38.43
34081;BME280;20358;50.272;19.026;2023-05-11T08:18:18;98395.03;;;14.76;38.26
34081;BME280;20358;50.272;19.026;2023-05-11T08:21:26;98398.44;;;14.78;37.12
34081;BME280;20358;50.272;19.026;2023-05-11T08:24:35;98404.84;;;14.75;37.37
34081;BME280;20358;50.272;19.026;2023-05-11T08:27:40;98385.28;;;14.76;37.68
34081;BME280;20358;50.272;19.026;2023-05-11T08:30:52;98387.63;;;14.79;37.68
34081;BME280;20358;50.272;19.026;2023-05-11T08:34:00;98390.59;;;14.86;37.65
34081;BME280;20358;50.272;19.026;2023-05-11T08:37:23;98390.47;;;14.97;37.55
34081;BME280;20358;50.272;19.026;2023-05-11T08:40:29;98385.41;;;15.03;37.04
34081;BME280;20358;50.272;19.026;2023-05-11T08:43:38;98384.56;;;15.12;37.05
34081;BME280;20358;50.272;19.026;2023-05-11T08:46:47;98388.59;;;15.16;37.03
34081;BME280;20358;50.272;19.026;2023-05-11T08:50:17;98396.16;;;15.21;36.94
34081;BME280;20358;50.272;19.026;2023-05-11T08:53:29;98280.03;;;14.64;36.69
34081;BME280;20358;50.272;19.026;2023-05-11T08:56:36;98378.78;;;15.26;36.88
34081;BME280;20358;50.272;19.026;2023-05-11T08:59:47;98389.16;;;15.29;36.77
34081;BME280;20358;50.272;19.026;2023-05-11T09:02:59;98384.34;;;15.43;36.33
34081;BME280;20358;50.272;19.026;2023-05-11T09:06:06;98385.31;;;15.61;36.18
34081;BME280;20358;50.272;19.026;2023-05-11T09:09:16;98383.75;;;15.68;36.19
34081;BME280;20358;50.272;19.026;2023-05-11T09:12:22;98380.75;;;15.80;35.14
34081;BME280;20358;50.272;19.026;2023-05-11T09:15:30;98377.34;;;15.88;34.83
34081;BME280;20358;50.272;19.026;2023-05-11T09:18:45;98369.63;;;15.94;34.70
34081;BME280;20358;50.272;19.026;2023-05-11T09:21:53;98381.06;;;16.05;34.78
34081;BME280;20358;50.272;19.026;2023-05-11T09:25:02;98376.38;;;16.16;33.75
34081;BME280;20358;50.272;19.026;2023-05-11T09:28:10;98376.16;;;16.27;33.58
34081;BME280;20358;50.272;19.026;2023-05-11T09:31:40;98375.00;;;16.39;33.71
34081;BME280;20358;50.272;19.026;2023-05-11T09:34:48;98374.09;;;16.48;33.98
34081;BME280;20358;50.272;19.026;2023-05-11T09:37:57;98360.84;;;16.57;33.57
34081;BME280;20358;50.272;19.026;2023-05-11T09:44:15;98360.81;;;16.92;32.85
34081;BME280;20358;50.272;19.026;2023-05-11T09:47:21;98358.38;;;17.16;30.99
34081;BME280;20358;50.272;19.026;2023-05-11T09:50:31;98350.00;;;17.37;29.28
34081;BME280;20358;50.272;19.026;2023-05-11T09:53:40;98356.13;;;17.55;29.75
34081;BME280;20358;50.272;19.026;2023-05-11T09:56:51;98351.56;;;17.73;29.17
34081;BME280;20358;50.272;19.026;2023-05-11T10:00:00;98347.06;;;17.73;27.94
34081;BME280;20358;50.272;19.026;2023-05-11T10:03:12;98343.53;;;17.73;26.66
34081;BME280;20358;50.272;19.026;2023-05-11T10:06:19;98347.91;;;17.74;26.86
34081;BME280;20358;50.272;19.026;2023-05-11T10:09:25;98352.94;;;17.77;27.33
34081;BME280;20358;50.272;19.026;2023-05-11T10:12:35;98340.69;;;17.66;26.92
34081;BME280;20358;50.272;19.026;2023-05-11T10:15:43;98336.94;;;17.59;26.85
34081;BME280;20358;50.272;19.026;2023-05-11T10:18:50;98337.97;;;17.58;26.66
34081;BME280;20358;50.272;19.026;2023-05-11T10:21:56;98342.25;;;17.51;25.76
34081;BME280;20358;50.272;19.026;2023-05-11T10:25:05;98339.69;;;17.42;25.74
34081;BME280;20358;50.272;19.026;2023-05-11T10:28:16;98332.13;;;17.29;26.17
34081;BME280;20358;50.272;19.026;2023-05-11T10:31:23;98329.09;;;17.24;26.54
34081;BME280;20358;50.272;19.026;2023-05-11T10:34:31;98335.03;;;17.18;26.87
34081;BME280;20358;50.272;19.026;2023-05-11T10:37:39;98332.00;;;17.13;27.11
34081;BME280;20358;50.272;19.026;2023-05-11T10:40:50;98326.97;;;17.10;26.33
34081;BME280;20358;50.272;19.026;2023-05-11T10:44:30;98319.53;;;16.96;26.43
34081;BME280;20358;50.272;19.026;2023-05-11T10:52:15;98324.41;;;16.83;27.05
34081;BME280;20358;50.272;19.026;2023-05-11T10:55:52;98321.59;;;16.84;26.06
34081;BME280;20358;50.272;19.026;2023-05-11T10:59:34;98327.75;;;16.85;26.15
34081;BME280;20358;50.272;19.026;2023-05-11T11:02:49;98317.69;;;16.79;25.82
34081;BME280;20358;50.272;19.026;2023-05-11T11:05:56;98309.31;;;16.74;26.19
34081;BME280;20358;50.272;19.026;2023-05-11T11:09:04;98313.75;;;16.83;26.11
34081;BME280;20358;50.272;19.026;2023-05-11T11:12:15;98302.41;;;16.81;25.62
34081;BME280;20358;50.272;19.026;2023-05-11T11:15:23;98300.94;;;16.69;26.02
34081;BME280;20358;50.272;19.026;2023-05-11T11:18:31;98283.59;;;16.65;25.83
34081;BME280;20358;50.272;19.026;2023-05-11T11:21:38;98261.59;;;16.45;25.52
34081;BME280;20358;50.272;19.026;2023-05-11T11:24:50;98311.00;;;16.75;25.76
34081;BME280;20358;50.272;19.026;2023-05-11T11:27:57;98301.38;;;16.82;25.33
34081;BME280;20358;50.272;19.026;2023-05-11T11:31:26;98303.94;;;16.83;25.06
34081;BME280;20358;50.272;19.026;2023-05-11T11:34:34;98302.03;;;16.76;25.16
34081;BME280;20358;50.272;19.026;2023-05-11T11:41:07;98299.00;;;16.71;25.27
34081;BME280;20358;50.272;19.026;2023-05-11T11:44:21;98134.81;;;15.64;26.28
34081;BME280;20358;50.272;19.026;2023-05-11T11:47:30;98309.31;;;16.74;26.80
34081;BME280;20358;50.272;19.026;2023-05-11T11:50:38;98297.00;;;16.73;27.44
34081;BME280;20358;50.272;19.026;2023-05-11T11:53:57;98254.81;;;16.50;27.17
34081;BME280;20358;50.272;19.026;2023-05-11T11:57:42;98255.13;;;16.47;27.42
34081;BME280;20358;50.272;19.026;2023-05-11T12:00:52;98296.44;;;16.87;27.41
34081;BME280;20358;50.272;19.026;2023-05-11T12:08:05;98299.53;;;17.00;26.98
34081;BME280;20358;50.272;19.026;2023-05-11T12:11:16;98276.84;;;16.96;27.36
34081;BME280;20358;50.272;19.026;2023-05-11T12:14:22;98281.56;;;17.02;27.97
34081;BME280;20358;50.272;19.026;2023-05-11T12:17:32;98282.22;;;17.04;28.64
34081;BME280;20358;50.272;19.026;2023-05-11T12:20:46;98289.47;;;17.11;28.74
34081;BME280;20358;50.272;19.026;2023-05-11T12:23:56;98254.66;;;16.95;28.65
34081;BME280;20358;50.272;19.026;2023-05-11T12:27:06;98291.84;;;17.14;29.10
34081;BME280;20358;50.272;19.026;2023-05-11T12:30:19;98289.66;;;17.18;29.52
34081;BME280;20358;50.272;19.026;2023-05-11T12:33:25;98288.38;;;17.22;29.30
34081;BME280;20358;50.272;19.026;2023-05-11T12:36:35;98285.03;;;17.20;28.57
34081;BME280;20358;50.272;19.026;2023-05-11T12:39:41;98283.66;;;17.16;28.62
34081;BME280;20358;50.272;19.026;2023-05-11T12:42:49;97926.25;;;14.94;28.53
34081;BME280;20358;50.272;19.026;2023-05-11T12:45:56;98249.53;;;17.02;29.00
34081;BME280;20358;50.272;19.026;2023-05-11T12:49:03;98278.00;;;17.19;28.59
34081;BME280;20358;50.272;19.026;2023-05-11T12:52:13;98256.66;;;17.19;29.20
34081;BME280;20358;50.272;19.026;2023-05-11T12:55:27;98254.53;;;17.31;29.28
34081;BME280;20358;50.272;19.026;2023-05-11T12:58:38;98194.25;;;17.12;29.39
34081;BME280;20358;50.272;19.026;2023-05-11T13:01:45;98254.25;;;17.75;28.36
34081;BME280;20358;50.272;19.026;2023-05-11T13:04:51;98251.34;;;17.95;28.40
34081;BME280;20358;50.272;19.026;2023-05-11T13:08:02;98255.38;;;18.15;28.25
34081;BME280;20358;50.272;19.026;2023-05-11T13:11:15;98242.88;;;18.23;27.33
34081;BME280;20358;50.272;19.026;2023-05-11T13:14:25;98242.19;;;18.29;26.88
34081;BME280;20358;50.272;19.026;2023-05-11T13:17:36;98242.19;;;18.37;28.31
34081;BME280;20358;50.272;19.026;2023-05-11T13:20:44;98239.03;;;18.34;28.41
34081;BME280;20358;50.272;19.026;2023-05-11T13:23:53;98238.53;;;18.30;28.79
34081;BME280;20358;50.272;19.026;2023-05-11T13:26:59;98250.53;;;18.34;28.77
34081;BME280;20358;50.272;19.026;2023-05-11T13:30:06;98238.34;;;18.24;28.00
34081;BME280;20358;50.272;19.026;2023-05-11T13:33:13;98242.69;;;18.17;28.65
34081;BME280;20358;50.272;19.026;2023-05-11T13:36:19;98238.69;;;18.13;28.56
34081;BME280;20358;50.272;19.026;2023-05-11T13:39:28;98236.66;;;18.07;28.81
34081;BME280;20358;50.272;19.026;2023-05-11T13:42:34;98231.31;;;18.07;28.86
34081;BME280;20358;50.272;19.026;2023-05-11T13:45:41;98223.81;;;18.18;28.55
34081;BME280;20358;50.272;19.026;2023-05-11T13:48:47;98228.66;;;18.15;28.75
34081;BME280;20358;50.272;19.026;2023-05-11T13:51:56;98211.63;;;18.08;28.99
34081;BME280;20358;50.272;19.026;2023-05-11T13:55:05;98215.13;;;18.00;28.49
34081;BME280;20358;50.272;19.026;2023-05-11T13:58:12;98219.66;;;18.16;28.54
34081;BME280;20358;50.272;19.026;2023-05-11T14:01:19;98212.78;;;18.37;28.21
34081;BME280;20358;50.272;19.026;2023-05-11T14:04:25;98211.66;;;18.56;28.21
34081;BME280;20358;50.272;19.026;2023-05-11T14:07:31;98217.66;;;18.66;28.26
34081;BME280;20358;50.272;19.026;2023-05-11T14:10:53;98212.28;;;18.82;27.37
34081;BME280;20358;50.272;19.026;2023-05-11T14:13:58;98210.91;;;18.94;28.14
34081;BME280;20358;50.272;19.026;2023-05-11T14:17:05;98213.91;;;19.08;27.50
34081;BME280;20358;50.272;19.026;2023-05-11T14:20:12;98211.88;;;19.18;27.93
34081;BME280;20358;50.272;19.026;2023-05-11T14:23:18;98204.22;;;19.07;27.02
34081;BME280;20358;50.272;19.026;2023-05-11T14:26:27;98201.59;;;18.82;27.54
34081;BME280;20358;50.272;19.026;2023-05-11T14:29:33;98189.53;;;18.78;28.29
34081;BME280;20358;50.272;19.026;2023-05-11T14:32:44;98202.25;;;18.76;27.55
34081;BME280;20358;50.272;19.026;2023-05-11T14:35:51;98198.41;;;18.79;27.86
34081;BME280;20358;50.272;19.026;2023-05-11T14:38:57;98196.91;;;18.68;27.48
34081;BME280;20358;50.272;19.026;2023-05-11T14:42:07;98199.28;;;18.55;27.80
34081;BME280;20358;50.272;19.026;2023-05-11T14:45:13;98202.31;;;18.52;27.63
34081;BME280;20358;50.272;19.026;2023-05-11T14:48:21;98202.59;;;18.41;28.54
34081;BME280;20358;50.272;19.026;2023-05-11T14:51:26;98191.25;;;18.31;27.98
34081;BME280;20358;50.272;19.026;2023-05-11T14:54:34;98193.91;;;18.23;28.07
34081;BME280;20358;50.272;19.026;2023-05-11T14:57:42;98192.56;;;18.19;28.59
34081;BME280;20358;50.272;19.026;2023-05-11T15:00:49;98189.22;;;18.17;28.46
34081;BME280;20358;50.272;19.026;2023-05-11T15:03:55;98187.72;;;18.30;28.53
34081;BME280;20358;50.272;19.026;2023-05-11T15:07:02;98197.28;;;18.49;28.32
34081;BME280;20358;50.272;19.026;2023-05-11T15:10:07;98177.53;;;18.42;27.44
34081;BME280;20358;50.272;19.026;2023-05-11T15:13:17;98188.25;;;18.58;27.70
34081;BME280;20358;50.272;19.026;2023-05-11T15:16:23;98190.56;;;18.85;27.21
34081;BME280;20358;50.272;19.026;2023-05-11T15:19:30;98182.00;;;18.90;27.06
34081;BME280;20358;50.272;19.026;2023-05-11T15:22:38;98185.50;;;18.98;27.07
34081;BME280;20358;50.272;19.026;2023-05-11T15:25:44;98178.69;;;19.43;27.03
34081;BME280;20358;50.272;19.026;2023-05-11T15:28:54;98172.13;;;19.84;26.30
34081;BME280;20358;50.272;19.026;2023-05-11T15:32:01;98186.19;;;20.54;26.28
34081;BME280;20358;50.272;19.026;2023-05-11T15:35:08;98176.91;;;21.23;26.10
34081;BME280;20358;50.272;19.026;2023-05-11T15:38:14;98191.44;;;21.94;25.24
34081;BME280;20358;50.272;19.026;2023-05-11T15:41:20;98184.56;;;22.48;24.90
34081;BME280;20358;50.272;19.026;2023-05-11T15:44:29;98192.91;;;23.09;24.63
34081;BME280;20358;50.272;19.026;2023-05-11T15:47:36;98193.47;;;23.32;23.73
34081;BME280;20358;50.272;19.026;2023-05-11T15:50:42;98185.78;;;23.76;22.86
34081;BME280;20358;50.272;19.026;2023-05-11T15:53:48;98192.94;;;24.10;22.48
34081;BME280;20358;50.272;19.026;2023-05-11T15:56:56;98190.94;;;24.58;22.52
34081;BME280;20358;50.272;19.026;2023-05-11T16:00:05;98182.63;;;25.06;22.01
34081;BME280;20358;50.272;19.026;2023-05-11T16:03:13;98188.16;;;25.50;21.64
34081;BME280;20358;50.272;19.026;2023-05-11T16:06:19;98190.31;;;25.86;21.80
34081;BME280;20358;50.272;19.026;2023-05-11T16:09:25;98187.25;;;25.69;20.93
34081;BME280;20358;50.272;19.026;2023-05-11T16:12:31;98196.19;;;25.70;21.08
34081;BME280;20358;50.272;19.026;2023-05-11T16:15:40;98192.06;;;25.54;21.65
34081;BME280;20358;50.272;19.026;2023-05-11T16:18:46;98188.34;;;25.48;21.94
34081;BME280;20358;50.272;19.026;2023-05-11T16:21:52;98193.75;;;25.48;22.33
34081;BME280;20358;50.272;19.026;2023-05-11T16:24:58;98201.69;;;25.37;22.01
34081;BME280;20358;50.272;19.026;2023-05-11T16:28:04;98197.19;;;24.98;22.11
34081;BME280;20358;50.272;19.026;2023-05-11T16:31:13;98204.28;;;24.79;22.83
34081;BME280;20358;50.272;19.026;2023-05-11T16:34:19;98195.94;;;24.81;22.50
34081;BME280;20358;50.272;19.026;2023-05-11T16:37:25;98195.13;;;24.67;22.57
34081;BME280;20358;50.272;19.026;2023-05-11T16:40:31;98199.25;;;24.50;23.04
34081;BME280;20358;50.272;19.026;2023-05-11T16:43:37;98198.81;;;24.47;22.91
34081;BME280;20358;50.272;19.026;2023-05-11T16:46:47;98204.22;;;24.53;23.19
34081;BME280;20358;50.272;19.026;2023-05-11T16:49:53;98206.72;;;24.35;23.61